createdAt,value
2022-10-16T00:00:23.805Z,101178.28
2022-10-16T00:02:56.711Z,101182.55
2022-10-16T00:05:30.032Z,101180.17
2022-10-16T00:08:04.530Z,101186.88
2022-10-16T00:10:37.945Z,101191.52
2022-10-16T00:13:10.887Z,101182.31
2022-10-16T00:15:45.166Z,101180.66
2022-10-16T00:18:17.916Z,101190.70
2022-10-16T00:20:51.006Z,101187.58
2022-10-16T00:23:24.638Z,101180.45
2022-10-16T00:25:59.695Z,101180.66
2022-10-16T00:28:33.195Z,101173.90
2022-10-16T00:31:12.075Z,101184.33
2022-10-16T00:33:45.239Z,101191.78
2022-10-16T00:36:21.789Z,101187.60
2022-10-16T00:38:57.491Z,101185.77
2022-10-16T00:41:31.719Z,101185.41
2022-10-16T00:44:08.379Z,101182.83
2022-10-16T00:46:45.740Z,101183.42
2022-10-16T00:49:20.395Z,101187.93
2022-10-16T00:51:55.357Z,101189.07
2022-10-16T00:54:32.989Z,101179.33
2022-10-16T00:57:08.736Z,101184.59
2022-10-16T00:59:44.221Z,101185.03
2022-10-16T01:02:19.298Z,101188.84
2022-10-16T01:04:55.011Z,101193.16
2022-10-16T01:07:38.561Z,101191.20
2022-10-16T01:10:52.393Z,101193.64
2022-10-16T01:13:38.802Z,101186.39
2022-10-16T01:16:18.429Z,101188.83
2022-10-16T01:19:03.453Z,101184.20
2022-10-16T01:21:42.839Z,101185.10
2022-10-16T01:24:26.042Z,101189.96
2022-10-16T01:27:19.359Z,101193.84
2022-10-16T01:30:21.941Z,101193.84
2022-10-16T01:32:59.529Z,101195.13
2022-10-16T01:35:47.708Z,101203.42
2022-10-16T01:38:27.828Z,101195.28
2022-10-16T01:41:11.395Z,101200.61
2022-10-16T01:43:54.183Z,101202.68
2022-10-16T01:46:28.152Z,101207.06
2022-10-16T01:49:02.970Z,101207.06
2022-10-16T01:51:36.115Z,101199.70
2022-10-16T01:54:11.046Z,101203.97
2022-10-16T01:56:44.954Z,101201.39
2022-10-16T01:59:21.967Z,101206.16
2022-10-16T02:01:59.376Z,101207.45
2022-10-16T02:04:39.327Z,101206.31
2022-10-16T02:07:12.429Z,101208.42
2022-10-16T02:09:46.800Z,101210.02
2022-10-16T02:12:33.371Z,101214.75
2022-10-16T02:15:06.873Z,101212.86
2022-10-16T02:17:41.115Z,101203.58
2022-10-16T02:20:14.543Z,101205.33
2022-10-16T02:22:49.840Z,101206.02
2022-10-16T02:25:33.058Z,101214.98
2022-10-16T02:28:10.273Z,101206.23
2022-10-16T02:30:56.034Z,101212.07
2022-10-16T02:33:31.218Z,101212.22
2022-10-16T02:36:04.523Z,101219.23
2022-10-16T02:38:38.074Z,101215.74
2022-10-16T02:41:14.443Z,101219.23
2022-10-16T02:43:47.414Z,101221.27
2022-10-16T02:46:21.114Z,101227.53
2022-10-16T02:48:53.797Z,101225.45
2022-10-16T02:51:26.963Z,101221.42
2022-10-16T02:53:59.916Z,101223.70
2022-10-16T02:56:33.170Z,101234.44
2022-10-16T02:59:06.103Z,101226.28
2022-10-16T03:01:39.589Z,101228.36
2022-10-16T03:04:12.441Z,101230.95
2022-10-16T03:06:45.548Z,101240.74
2022-10-16T03:09:19.564Z,101238.25
2022-10-16T03:11:53.463Z,101235.87
2022-10-16T03:16:59.861Z,101246.75
2022-10-16T03:19:33.304Z,101236.02
2022-10-16T03:22:06.141Z,101240.05
2022-10-16T03:24:39.690Z,101241.19
2022-10-16T03:27:12.738Z,101241.58
2022-10-16T03:29:46.326Z,101236.65
2022-10-16T03:32:19.630Z,101234.81
2022-10-16T03:34:54.305Z,101236.65
2022-10-16T03:37:27.620Z,101239.23
2022-10-16T03:40:01.266Z,101237.94
2022-10-16T03:42:34.477Z,101243.27
2022-10-16T03:45:08.540Z,101245.55
2022-10-16T03:47:40.773Z,101243.55
2022-10-16T03:50:13.794Z,101240.66
2022-10-16T03:52:47.006Z,101243.09
2022-10-16T03:55:19.702Z,101227.73
2022-10-16T03:57:52.763Z,101233.06
2022-10-16T04:00:25.666Z,101239.47
2022-10-16T04:02:58.476Z,101234.66
2022-10-16T04:05:31.693Z,101238.53
2022-10-16T04:08:05.290Z,101242.72
2022-10-16T04:10:38.786Z,101246.20
2022-10-16T04:13:12.408Z,101252.47
2022-10-16T04:15:47.394Z,101250.39
2022-10-16T04:18:20.401Z,101250.03
2022-10-16T04:20:53.784Z,101250.39
2022-10-16T04:23:27.226Z,101251.17
2022-10-16T04:25:59.996Z,101259.67
2022-10-16T04:28:33.522Z,101264.25
2022-10-16T04:31:10.295Z,101270.23
2022-10-16T04:33:47.301Z,101269.04
2022-10-16T04:36:21.564Z,101270.40
2022-10-16T04:38:54.911Z,101269.02
2022-10-16T04:41:28.154Z,101274.89
2022-10-16T04:44:01.096Z,101272.22
2022-10-16T04:46:33.883Z,101275.11
2022-10-16T04:49:06.765Z,101277.25
2022-10-16T04:51:40.181Z,101278.99
2022-10-16T04:54:13.723Z,101275.62
2022-10-16T04:56:48.030Z,101282.78
2022-10-16T04:59:22.011Z,101282.16
2022-10-16T05:01:54.811Z,101285.83
2022-10-16T05:04:27.875Z,101292.95
2022-10-16T05:07:00.933Z,101293.80
2022-10-16T05:09:34.514Z,101297.23
2022-10-16T05:12:07.755Z,101298.94
2022-10-16T05:14:41.380Z,101308.90
2022-10-16T05:17:15.006Z,101312.02
2022-10-16T05:19:48.912Z,101317.16
2022-10-16T05:22:22.179Z,101320.11
2022-10-16T05:24:55.177Z,101318.80
2022-10-16T05:27:28.777Z,101320.88
2022-10-16T05:30:02.290Z,101327.99
2022-10-16T05:32:35.954Z,101327.14
2022-10-16T05:35:12.561Z,101326.39
2022-10-16T05:37:45.529Z,101335.96
2022-10-16T05:40:19.113Z,101334.66
2022-10-16T05:42:52.429Z,101337.55
2022-10-16T05:45:25.565Z,101338.38
2022-10-16T05:47:58.820Z,101337.67
2022-10-16T05:50:31.631Z,101337.47
2022-10-16T05:53:04.783Z,101341.18
2022-10-16T05:55:38.987Z,101334.48
2022-10-16T05:58:12.128Z,101339.89
2022-10-16T06:00:45.030Z,101339.81
2022-10-16T06:03:18.806Z,101339.09
2022-10-16T06:05:52.711Z,101343.27
2022-10-16T06:08:26.525Z,101344.10
2022-10-16T06:11:07.742Z,101350.22
2022-10-16T06:13:42.843Z,101351.19
2022-10-16T06:16:17.484Z,101353.05
2022-10-16T06:18:52.913Z,101347.64
2022-10-16T06:21:28.119Z,101360.92
2022-10-16T06:24:02.163Z,101356.84
2022-10-16T06:26:35.278Z,101354.19
2022-10-16T06:29:10.260Z,101363.86
2022-10-16T06:31:43.686Z,101363.00
2022-10-16T06:34:17.188Z,101358.81
2022-10-16T06:36:50.163Z,101359.38
2022-10-16T06:39:23.453Z,101361.38
2022-10-16T06:41:56.945Z,101357.64
2022-10-16T06:44:31.539Z,101355.77
2022-10-16T06:47:05.176Z,101352.29
2022-10-16T06:49:38.256Z,101350.12
2022-10-16T06:52:11.611Z,101346.48
2022-10-16T06:54:44.401Z,101338.83
2022-10-16T06:57:17.309Z,101348.47
2022-10-16T06:59:55.123Z,101345.70
2022-10-16T07:02:25.776Z,101339.69
2022-10-16T07:04:58.876Z,101338.11
2022-10-16T07:07:32.775Z,101342.02
2022-10-16T07:10:07.238Z,101342.50
2022-10-16T07:12:41.168Z,101339.47
2022-10-16T07:15:15.488Z,101345.03
2022-10-16T07:17:48.207Z,101335.88
2022-10-16T07:20:22.428Z,101340.69
2022-10-16T07:22:55.124Z,101335.85
2022-10-16T07:25:27.954Z,101342.17
2022-10-16T07:28:00.734Z,101342.30
2022-10-16T07:30:35.547Z,101336.92
2022-10-16T07:33:07.407Z,101346.50
2022-10-16T07:35:40.197Z,101351.67
2022-10-16T07:38:13.021Z,101349.14
2022-10-16T07:40:46.396Z,101348.69
2022-10-16T07:43:19.567Z,101340.16
2022-10-16T07:45:53.781Z,101327.59
2022-10-16T07:48:33.045Z,101332.77
2022-10-16T07:51:08.421Z,101323.33
2022-10-16T07:53:41.865Z,101331.63
2022-10-16T07:56:17.103Z,101335.13
2022-10-16T07:58:51.436Z,101332.34
2022-10-16T08:01:24.160Z,101336.84
2022-10-16T08:03:56.995Z,101327.12
2022-10-16T08:06:30.097Z,101330.09
2022-10-16T08:09:03.037Z,101330.15
2022-10-16T08:11:36.314Z,101328.12
2022-10-16T08:14:09.659Z,101328.70
2022-10-16T08:16:43.046Z,101327.97
2022-10-16T08:19:17.021Z,101329.84
2022-10-16T08:21:53.118Z,101327.28
2022-10-16T08:24:25.801Z,101323.81
2022-10-16T08:26:59.157Z,101333.12
2022-10-16T08:29:32.206Z,101330.77
2022-10-16T08:32:07.590Z,101334.87
2022-10-16T08:34:40.413Z,101329.69
2022-10-16T08:37:14.994Z,101334.09
2022-10-16T08:39:49.281Z,101336.73
2022-10-16T08:42:35.673Z,101333.78
2022-10-16T08:45:34.589Z,101338.93
2022-10-16T08:48:20.752Z,101332.83
2022-10-16T08:50:54.999Z,101333.48
2022-10-16T08:53:32.709Z,101328.87
2022-10-16T08:56:06.887Z,101331.55
2022-10-16T08:58:39.842Z,101320.69
2022-10-16T09:01:17.511Z,101329.97
2022-10-16T09:04:21.056Z,101319.45
2022-10-16T09:07:03.842Z,101321.18
2022-10-16T09:09:53.189Z,101321.46
2022-10-16T09:12:33.624Z,101323.61
2022-10-16T09:15:35.521Z,101316.59
2022-10-16T09:18:35.718Z,101312.25
2022-10-16T09:21:30.825Z,101306.64
2022-10-16T09:24:18.090Z,101308.06
2022-10-16T09:26:51.136Z,101304.64
2022-10-16T09:29:26.527Z,101300.09
2022-10-16T09:32:02.923Z,101303.53
2022-10-16T09:34:38.440Z,101307.36
2022-10-16T09:37:23.730Z,101294.08
2022-10-16T09:39:58.183Z,101302.83
2022-10-16T09:42:37.594Z,101298.79
2022-10-16T09:45:23.688Z,101294.20
2022-10-16T09:47:57.866Z,101293.88
2022-10-16T09:50:31.544Z,101292.39
2022-10-16T09:53:13.842Z,101294.28
2022-10-16T09:55:55.269Z,101298.93
2022-10-16T09:58:28.028Z,101299.13
2022-10-16T10:01:01.912Z,101301.13
2022-10-16T10:03:41.658Z,101289.62
2022-10-16T10:06:27.989Z,101286.98
2022-10-16T10:09:20.464Z,101285.86
2022-10-16T10:12:04.697Z,101284.47
2022-10-16T10:14:45.218Z,101275.77
2022-10-16T10:17:23.953Z,101286.36
2022-10-16T10:20:03.049Z,101280.91
2022-10-16T10:22:46.535Z,101284.75
2022-10-16T10:25:47.172Z,101285.86
2022-10-16T10:28:33.383Z,101282.34
2022-10-16T10:31:38.282Z,101282.95
2022-10-16T10:34:39.399Z,101283.58
2022-10-16T10:37:25.956Z,101279.03
2022-10-16T10:40:35.965Z,101275.62
2022-10-16T10:43:42.391Z,101266.44
2022-10-16T10:46:20.204Z,101267.53
2022-10-16T10:49:25.945Z,101270.45
2022-10-16T10:52:30.254Z,101266.61
2022-10-16T10:55:29.189Z,101264.60
2022-10-16T10:58:38.777Z,101268.22
2022-10-16T11:01:21.364Z,101272.15
2022-10-16T11:04:13.035Z,101271.03
2022-10-16T11:06:52.986Z,101271.93
2022-10-16T11:09:42.524Z,101268.92
2022-10-16T11:12:44.930Z,101277.08
2022-10-16T11:15:31.885Z,101272.15
2022-10-16T11:18:37.074Z,101274.45
2022-10-16T11:21:11.795Z,101276.06
2022-10-16T11:23:49.130Z,101271.62
2022-10-16T11:26:32.577Z,101269.19
2022-10-16T11:29:06.908Z,101271.08
2022-10-16T11:31:44.640Z,101271.27
2022-10-16T11:34:31.771Z,101266.12
2022-10-16T11:37:35.258Z,101264.42
2022-10-16T11:40:35.115Z,101266.53
2022-10-16T11:43:19.468Z,101263.91
2022-10-16T11:45:59.458Z,101263.40
2022-10-16T11:49:06.206Z,101266.53
2022-10-16T11:51:47.458Z,101259.98
2022-10-16T11:54:43.922Z,101263.02
2022-10-16T11:57:30.423Z,101261.61
2022-10-16T12:00:32.160Z,101264.23
2022-10-16T12:03:30.997Z,101265.03
2022-10-16T12:06:39.425Z,101263.30
2022-10-16T12:09:17.585Z,101261.98
2022-10-16T12:11:51.022Z,101261.89
2022-10-16T12:15:04.039Z,101257.06
2022-10-16T12:17:38.040Z,101256.07
2022-10-16T12:20:32.720Z,101266.15
2022-10-16T12:23:08.087Z,101266.15
2022-10-16T12:25:44.422Z,101269.98
2022-10-16T12:28:26.793Z,101273.03
2022-10-16T12:31:03.910Z,101277.76
2022-10-16T12:33:47.752Z,101273.83
2022-10-16T12:36:35.748Z,101283.01
2022-10-16T12:39:08.518Z,101287.84
2022-10-16T12:41:41.590Z,101283.42
2022-10-16T12:44:27.691Z,101291.20
2022-10-16T12:47:01.119Z,101288.89
2022-10-16T12:49:39.531Z,101294.52
2022-10-16T12:52:39.504Z,101299.66
2022-10-16T12:55:17.084Z,101293.94
2022-10-16T12:58:12.584Z,101297.27
2022-10-16T13:00:54.427Z,101291.92
2022-10-16T13:04:08.348Z,101289.09
2022-10-16T13:07:04.096Z,101295.97
2022-10-16T13:10:06.564Z,101294.75
2022-10-16T13:13:02.844Z,101294.48
2022-10-16T13:15:55.557Z,101300.42
2022-10-16T13:18:41.562Z,101302.44
2022-10-16T13:21:29.959Z,101300.12
2022-10-16T13:24:28.994Z,101309.20
2022-10-16T13:27:24.873Z,101306.90
2022-10-16T13:30:06.146Z,101294.90
2022-10-16T13:32:38.881Z,101301.25
2022-10-16T13:35:28.730Z,101307.19
2022-10-16T13:38:20.619Z,101302.95
2022-10-16T13:41:06.275Z,101308.79
2022-10-16T13:43:45.790Z,101308.07
2022-10-16T13:46:21.748Z,101311.38
2022-10-16T13:49:07.377Z,101316.84
2022-10-16T13:51:41.407Z,101321.98
2022-10-16T13:54:14.691Z,101319.88
2022-10-16T13:56:47.830Z,101319.16
2022-10-16T13:59:29.964Z,101317.22
2022-10-16T14:02:10.585Z,101324.77
2022-10-16T14:04:44.630Z,101321.98
2022-10-16T14:07:24.393Z,101324.56
2022-10-16T14:09:59.036Z,101332.00
2022-10-16T14:12:33.111Z,101331.10
2022-10-16T14:15:09.994Z,101337.34
2022-10-16T14:17:46.094Z,101336.91
2022-10-16T14:20:20.023Z,101336.90
2022-10-16T14:23:03.631Z,101339.20
2022-10-16T14:25:36.697Z,101344.91
2022-10-16T14:28:21.326Z,101342.58
2022-10-16T14:30:59.049Z,101347.38
2022-10-16T14:33:35.846Z,101347.62
2022-10-16T14:36:19.345Z,101349.43
2022-10-16T14:39:05.530Z,101353.59
2022-10-16T14:41:51.044Z,101363.13
2022-10-16T14:44:30.941Z,101369.13
2022-10-16T14:47:16.480Z,101367.66
2022-10-16T14:49:49.370Z,101371.14
2022-10-16T14:52:22.510Z,101380.22
2022-10-16T14:54:57.219Z,101383.69
2022-10-16T14:57:31.749Z,101385.03
2022-10-16T15:00:06.655Z,101383.39
2022-10-16T15:02:39.831Z,101382.93
2022-10-16T15:05:28.775Z,101382.63
2022-10-16T15:08:02.177Z,101382.95
2022-10-16T15:10:39.832Z,101389.43
2022-10-16T15:13:16.112Z,101383.22
2022-10-16T15:15:53.313Z,101387.98
2022-10-16T15:18:26.344Z,101400.98
2022-10-16T15:20:59.763Z,101405.63
2022-10-16T15:23:33.033Z,101410.00
2022-10-16T15:26:06.178Z,101409.01
2022-10-16T15:28:39.274Z,101412.05
2022-10-16T15:31:12.950Z,101419.03
2022-10-16T15:33:47.933Z,101422.59
2022-10-16T15:36:38.153Z,101427.56
2022-10-16T15:39:21.427Z,101426.80
2022-10-16T15:41:54.811Z,101429.17
2022-10-16T15:44:29.371Z,101429.22
2022-10-16T15:47:05.107Z,101436.80
2022-10-16T15:49:38.204Z,101439.17
2022-10-16T15:52:11.995Z,101438.44
2022-10-16T15:54:50.402Z,101446.80
2022-10-16T15:57:20.458Z,101452.95
2022-10-16T16:02:28.694Z,101462.28
2022-10-16T16:05:03.022Z,101461.23
2022-10-16T16:07:41.871Z,101462.41
2022-10-16T16:10:16.114Z,101466.73
2022-10-16T16:12:54.071Z,101471.05
2022-10-16T16:15:28.422Z,101478.87
2022-10-16T16:18:02.979Z,101477.16
2022-10-16T16:20:37.760Z,101478.22
2022-10-16T16:23:10.956Z,101482.00
2022-10-16T16:25:45.371Z,101480.45
2022-10-16T16:28:18.095Z,101481.02
2022-10-16T16:30:53.712Z,101484.39
2022-10-16T16:33:26.711Z,101487.94
2022-10-16T16:36:05.013Z,101487.69
2022-10-16T16:38:37.828Z,101482.50
2022-10-16T16:41:24.092Z,101485.38
2022-10-16T16:43:58.279Z,101488.36
2022-10-16T16:46:32.051Z,101500.63
2022-10-16T16:49:05.674Z,101499.97
2022-10-16T16:51:40.870Z,101501.27
2022-10-16T16:54:15.186Z,101511.70
2022-10-16T16:56:49.508Z,101509.38
2022-10-16T16:59:23.659Z,101513.56
2022-10-16T17:01:57.141Z,101520.45
2022-10-16T17:04:30.615Z,101522.69
2022-10-16T17:07:04.483Z,101517.34
2022-10-16T17:09:38.040Z,101517.58
2022-10-16T17:12:11.408Z,101520.31
2022-10-16T17:14:49.168Z,101514.08
2022-10-16T17:17:21.978Z,101517.86
2022-10-16T17:19:55.527Z,101519.70
2022-10-16T17:22:28.632Z,101519.42
2022-10-16T17:25:04.174Z,101512.50
2022-10-16T17:27:37.851Z,101512.75
2022-10-16T17:30:11.923Z,101528.65
2022-10-16T17:32:47.187Z,101529.18
2022-10-16T17:35:21.790Z,101534.39
2022-10-16T17:37:55.854Z,101533.09
2022-10-16T17:40:31.399Z,101534.14
2022-10-16T17:43:04.748Z,101534.78
2022-10-16T17:45:43.233Z,101528.42
2022-10-16T17:48:16.143Z,101531.67
2022-10-16T17:50:49.450Z,101531.95
2022-10-16T17:53:22.847Z,101537.03
2022-10-16T17:55:57.487Z,101538.61
2022-10-16T17:58:32.212Z,101543.95
2022-10-16T18:01:06.359Z,101553.20
2022-10-16T18:03:39.072Z,101549.66
2022-10-16T18:06:13.806Z,101551.52
2022-10-16T18:08:48.377Z,101551.35
2022-10-16T18:11:23.755Z,101550.69
2022-10-16T18:13:59.175Z,101543.55
2022-10-16T18:16:31.905Z,101546.80
2022-10-16T18:19:05.177Z,101541.60
2022-10-16T18:21:38.048Z,101549.94
2022-10-16T18:24:11.759Z,101545.27
2022-10-16T18:26:45.666Z,101540.30
2022-10-16T18:29:19.992Z,101540.56
2022-10-16T18:31:53.013Z,101541.48
2022-10-16T18:34:27.478Z,101541.22
2022-10-16T18:37:00.566Z,101539.13
2022-10-16T18:39:34.578Z,101537.95
2022-10-16T18:42:07.780Z,101538.87
2022-10-16T18:44:40.922Z,101541.21
2022-10-16T18:47:14.016Z,101541.22
2022-10-16T18:49:49.140Z,101540.42
2022-10-16T18:52:23.835Z,101545.77
2022-10-16T18:54:58.554Z,101539.00
2022-10-16T18:57:32.507Z,101538.50
2022-10-16T19:00:06.079Z,101534.59
2022-10-16T19:02:39.777Z,101533.16
2022-10-16T19:05:15.616Z,101530.55
2022-10-16T19:07:49.378Z,101526.24
2022-10-16T19:10:22.596Z,101530.55
2022-10-16T19:12:56.204Z,101532.48
2022-10-16T19:15:29.110Z,101535.23
2022-10-16T19:18:02.429Z,101539.77
2022-10-16T19:20:35.774Z,101539.50
2022-10-16T19:23:08.760Z,101533.50
2022-10-16T19:25:41.997Z,101532.86
2022-10-16T19:28:15.459Z,101537.94
2022-10-16T19:30:49.231Z,101534.80
2022-10-16T19:33:22.476Z,101538.97
2022-10-16T19:35:55.451Z,101543.64
2022-10-16T19:38:28.239Z,101545.61
2022-10-16T19:41:10.534Z,101546.64
2022-10-16T19:43:44.321Z,101552.75
2022-10-16T19:46:23.469Z,101556.78
2022-10-16T19:49:02.783Z,101547.91
2022-10-16T19:51:37.555Z,101554.14
2022-10-16T19:54:14.955Z,101543.45
2022-10-16T19:56:47.764Z,101550.49
2022-10-16T19:59:20.945Z,101547.22
2022-10-16T20:01:54.270Z,101538.59
2022-10-16T20:04:27.582Z,101538.59
2022-10-16T20:07:00.662Z,101553.16
2022-10-16T20:09:35.716Z,101555.72
2022-10-16T20:12:08.546Z,101560.14
2022-10-16T20:14:42.503Z,101558.70
2022-10-16T20:17:15.639Z,101563.10
2022-10-16T20:19:48.553Z,101560.64
2022-10-16T20:22:21.952Z,101573.28
2022-10-16T20:24:55.792Z,101569.37
2022-10-16T20:27:29.980Z,101578.08
2022-10-16T20:30:03.351Z,101580.14
2022-10-16T20:32:36.918Z,101580.41
2022-10-16T20:35:10.708Z,101586.28
2022-10-16T20:37:45.049Z,101580.01
2022-10-16T20:40:17.272Z,101583.91
2022-10-16T20:42:50.894Z,101586.14
2022-10-16T20:45:24.450Z,101589.00
2022-10-16T20:47:57.346Z,101595.23
2022-10-16T20:50:33.824Z,101594.69
2022-10-16T20:53:06.929Z,101603.39
2022-10-16T20:55:40.212Z,101605.63
2022-10-16T20:58:13.484Z,101606.00
2022-10-16T21:00:47.028Z,101606.93
2022-10-16T21:03:22.041Z,101610.97
2022-10-16T21:05:57.867Z,101603.67
2022-10-16T21:08:30.703Z,101614.88
2022-10-16T21:11:05.294Z,101617.47
2022-10-16T21:13:40.012Z,101612.49
2022-10-16T21:16:14.175Z,101618.22
2022-10-16T21:18:47.628Z,101617.53
2022-10-16T21:21:30.760Z,101613.89
2022-10-16T21:24:03.721Z,101609.45
2022-10-16T21:26:36.721Z,101605.55
2022-10-16T21:29:11.352Z,101603.86
2022-10-16T21:31:45.612Z,101605.81
2022-10-16T21:34:18.294Z,101606.69
2022-10-16T21:36:51.628Z,101612.38
2022-10-16T21:39:24.696Z,101618.70
2022-10-16T21:41:57.933Z,101621.64
2022-10-16T21:44:30.794Z,101623.45
2022-10-16T21:47:04.919Z,101627.06
2022-10-16T21:49:38.477Z,101619.89
2022-10-16T21:52:12.005Z,101628.34
2022-10-16T21:54:44.740Z,101620.63
2022-10-16T21:57:17.712Z,101623.33
2022-10-16T21:59:54.748Z,101625.90
2022-10-16T22:02:27.632Z,101619.23
2022-10-16T22:05:00.898Z,101620.45
2022-10-16T22:07:35.266Z,101614.61
2022-10-16T22:10:09.383Z,101620.56
2022-10-16T22:12:42.091Z,101620.02
2022-10-16T22:15:15.382Z,101625.72
2022-10-16T22:17:48.420Z,101631.92
2022-10-16T22:20:21.691Z,101624.86
2022-10-16T22:22:54.554Z,101629.61
2022-10-16T22:25:27.307Z,101630.05
2022-10-16T22:28:00.172Z,101633.64
2022-10-16T22:30:33.166Z,101638.19
2022-10-16T22:33:07.991Z,101639.59
2022-10-16T22:35:42.678Z,101638.50
2022-10-16T22:38:15.522Z,101646.14
2022-10-16T22:40:48.588Z,101650.44
2022-10-16T22:43:21.524Z,101649.75
2022-10-16T22:45:54.357Z,101645.34
2022-10-16T22:48:27.302Z,101648.84
2022-10-16T22:51:00.047Z,101653.64
2022-10-16T22:53:34.255Z,101652.73
2022-10-16T22:56:07.385Z,101649.23
2022-10-16T22:58:40.429Z,101646.10
2022-10-16T23:01:20.462Z,101648.01
2022-10-16T23:03:53.213Z,101655.89
2022-10-16T23:06:26.484Z,101651.27
2022-10-16T23:09:02.917Z,101648.47
2022-10-16T23:11:37.286Z,101651.45
2022-10-16T23:14:10.257Z,101647.48
2022-10-16T23:16:43.204Z,101641.63
2022-10-16T23:19:17.030Z,101645.98
2022-10-16T23:21:51.610Z,101639.84
2022-10-16T23:24:25.041Z,101636.64
2022-10-16T23:26:57.976Z,101634.89
2022-10-16T23:29:30.982Z,101631.25
2022-10-16T23:32:03.875Z,101631.25
2022-10-16T23:34:37.968Z,101619.94
2022-10-16T23:37:10.860Z,101630.56
2022-10-16T23:39:44.501Z,101627.91
2022-10-16T23:42:17.222Z,101625.38
2022-10-16T23:44:50.324Z,101619.38
2022-10-16T23:47:24.139Z,101619.59
2022-10-16T23:49:57.172Z,101628.00
2022-10-16T23:52:30.039Z,101627.16
2022-10-16T23:55:03.034Z,101624.80
2022-10-16T23:57:36.174Z,101626.34
